Time;durP1;ratioP1;P1;durP2;ratioP2;P2;SDS_P1;SDS_P2;PMS_P1;PMS_P2;Temp;Humidity;BMP_temperature;BMP_pressure;BME280_temperature;BME280_humidity;BME280_pressure;Samples;Min_cycle;Max_cycle;Signal;HPM_P1;HPM_P2
2022/12/25 00:02:00;;;;;;;21.33;7.10;;;8.60;99.90;;;;;;2612943;54;20367;-78
2022/12/25 00:07:48;;;;;;;18.00;6.33;;;9.00;99.90;;;;;;2614604;54;20131;-78
2022/12/25 00:13:36;;;;;;;14.17;5.53;;;9.20;99.90;;;;;;2613509;54;20391;-78
2022/12/25 00:19:24;;;;;;;11.50;5.63;;;9.20;99.90;;;;;;2613912;54;20928;-78
2022/12/25 00:22:41;;;;;;;17.00;6.33;;;9.20;99.90;;;;;;2612828;54;20404;-78
2022/12/25 00:25:07;;;;;;;18.90;5.97;;;9.10;99.90;;;;;;2613090;47;20174;-78
2022/12/25 00:30:55;;;;;;;9.97;5.63;;;9.30;99.90;;;;;;2615148;54;20395;-78
2022/12/25 00:36:42;;;;;;;15.40;6.03;;;9.40;99.90;;;;;;2615134;54;20118;-78
2022/12/25 00:42:30;;;;;;;19.40;5.63;;;9.40;99.90;;;;;;2615052;54;20125;-78
2022/12/25 00:45:33;;;;;;;12.33;5.57;;;9.40;99.90;;;;;;2614593;54;20396;-77
2022/12/25 00:47:59;;;;;;;12.73;4.77;;;9.40;99.90;;;;;;2615565;54;20162;-78
2022/12/25 00:53:46;;;;;;;11.57;5.60;;;9.50;99.90;;;;;;2615859;46;20203;-76
2022/12/25 00:59:34;;;;;;;10.97;4.50;;;9.50;99.90;;;;;;2613919;54;20150;-77
2022/12/25 01:05:23;;;;;;;9.30;4.70;;;9.50;99.90;;;;;;2614167;54;20133;-78
2022/12/25 01:11:11;;;;;;;13.40;4.60;;;9.50;99.90;;;;;;2614484;54;20366;-78
2022/12/25 01:16:58;;;;;;;13.70;4.80;;;9.50;99.90;;;;;;2613420;39;20474;-77
2022/12/25 01:22:46;;;;;;;11.03;4.70;;;9.50;99.90;;;;;;2614478;54;20185;-77
2022/12/25 01:28:34;;;;;;;7.63;3.87;;;9.50;99.90;;;;;;2614270;54;20134;-78
2022/12/25 01:34:22;;;;;;;8.47;5.03;;;9.60;99.90;;;;;;2614632;54;20122;-77
2022/12/25 01:40:10;;;;;;;11.77;4.47;;;9.60;99.90;;;;;;2614826;54;20216;-77
2022/12/25 01:45:58;;;;;;;10.20;5.20;;;9.50;99.90;;;;;;2615168;54;20403;-77
2022/12/25 01:51:48;;;;;;;11.70;3.43;;;9.60;99.90;;;;;;2614482;54;20467;-76
2022/12/25 01:57:37;;;;;;;5.93;3.50;;;9.60;99.90;;;;;;2615333;54;20434;-76
2022/12/25 02:03:25;;;;;;;4.90;3.30;;;9.70;99.90;;;;;;2615035;54;20391;-76
2022/12/25 02:09:14;;;;;;;8.90;3.73;;;9.70;99.90;;;;;;2613674;54;20439;-78
2022/12/25 02:15:07;;;;;;;11.43;3.33;;;9.80;99.90;;;;;;2613156;46;20418;-79
2022/12/25 02:30:53;;;;;;;6.30;3.50;;;9.80;99.90;;;;;;2612512;54;20527;-78
2022/12/25 03:07:51;;;;;;;11.20;3.57;;;9.90;99.90;;;;;;2613854;54;21049;-77
2022/12/25 03:13:42;;;;;;;6.60;3.20;;;9.70;99.90;;;;;;2613486;39;20583;-78
2022/12/25 04:40:10;;;;;;;4.83;3.30;;;9.60;99.90;;;;;;2614240;54;20511;-76
2022/12/25 04:45:59;;;;;;;6.70;2.80;;;9.60;99.90;;;;;;2615175;54;20718;-77
2022/12/25 04:51:47;;;;;;;6.73;3.53;;;9.70;99.90;;;;;;2613946;54;20398;-76
2022/12/25 04:57:35;;;;;;;5.20;3.00;;;9.70;99.90;;;;;;2616578;54;20651;-79
2022/12/25 05:03:24;;;;;;;5.43;3.50;;;9.80;99.90;;;;;;2616301;54;20131;-78
2022/12/25 05:09:11;;;;;;;7.20;3.40;;;9.70;99.90;;;;;;2614308;54;20383;-78
2022/12/25 05:14:59;;;;;;;6.17;3.60;;;9.50;99.90;;;;;;2614425;54;20134;-78
2022/12/25 05:20:54;;;;;;;7.07;3.03;;;9.50;99.90;;;;;;2614267;54;20158;-78
2022/12/25 05:26:41;;;;;;;10.43;3.67;;;9.40;99.90;;;;;;2613433;54;20418;-75
2022/12/25 05:29:35;;;;;;;8.57;3.63;;;9.30;99.90;;;;;;2613477;46;20937;-76
2022/12/25 05:32:01;;;;;;;10.47;3.97;;;9.40;99.90;;;;;;2614052;54;20150;-76
2022/12/25 05:37:49;;;;;;;8.77;3.20;;;9.30;99.90;;;;;;2613903;54;20230;-76
2022/12/25 05:43:36;;;;;;;6.80;3.13;;;9.40;99.90;;;;;;2614400;54;20134;-76
2022/12/25 05:49:24;;;;;;;9.20;3.93;;;9.50;99.90;;;;;;2613282;54;20172;-77
2022/12/25 05:55:12;;;;;;;8.87;3.83;;;9.60;99.90;;;;;;2613637;54;21301;-78
2022/12/25 06:01:00;;;;;;;5.93;3.53;;;9.50;99.90;;;;;;2614686;54;20134;-76
2022/12/25 06:06:48;;;;;;;5.30;3.60;;;9.30;99.90;;;;;;2612686;54;20362;-76
2022/12/25 06:12:36;;;;;;;8.27;3.40;;;9.20;99.90;;;;;;2614117;54;20174;-78
2022/12/25 06:18:25;;;;;;;9.30;3.83;;;9.20;99.90;;;;;;2612671;54;20130;-78
2022/12/25 06:24:13;;;;;;;7.10;3.30;;;9.30;99.90;;;;;;2614280;31;20837;-78
2022/12/25 06:34:09;;;;;;;7.93;2.50;;;9.40;99.90;;;;;;2613570;54;20446;-77
2022/12/25 06:40:00;;;;;;;6.97;3.47;;;9.50;99.90;;;;;;2612540;54;20979;-76
2022/12/25 06:45:49;;;;;;;3.93;2.60;;;9.70;99.90;;;;;;2612796;54;21048;-76
2022/12/25 06:51:37;;;;;;;5.23;3.07;;;9.70;99.90;;;;;;2614116;54;20398;-76
2022/12/25 06:57:25;;;;;;;7.90;3.10;;;9.60;99.90;;;;;;2614268;54;20138;-76
2022/12/25 07:03:18;;;;;;;6.60;2.83;;;9.50;99.90;;;;;;2612823;54;20667;-76
2022/12/25 07:09:06;;;;;;;7.63;2.77;;;9.40;99.90;;;;;;2613525;54;20623;-75
2022/12/25 07:14:54;;;;;;;5.50;3.00;;;9.30;99.90;;;;;;2614148;54;20125;-76
2022/12/25 07:20:42;;;;;;;6.20;3.13;;;9.10;99.90;;;;;;2612662;54;21025;-77
2022/12/25 07:26:30;;;;;;;10.47;2.80;;;8.90;99.90;;;;;;2613672;54;20590;-77
2022/12/25 07:29:33;;;;;;;6.00;3.30;;;8.80;99.90;;;;;;2613625;47;20423;-76
2022/12/25 07:31:59;;;;;;;4.70;3.00;;;8.80;99.90;;;;;;2613889;54;20676;-75
2022/12/25 07:37:46;;;;;;;8.10;3.93;;;8.90;99.90;;;;;;2613086;54;20234;-75
2022/12/25 07:43:34;;;;;;;5.60;3.13;;;9.00;99.90;;;;;;2612748;39;20525;-75
2022/12/25 07:49:22;;;;;;;9.80;3.13;;;8.90;99.90;;;;;;2611463;54;20603;-76
2022/12/25 07:55:09;;;;;;;6.60;2.90;;;9.00;99.90;;;;;;2613325;39;20562;-75
2022/12/25 07:57:35;;;;;;;9.90;3.60;;;9.00;99.90;;;;;;2612704;54;20435;-76
2022/12/25 08:00:03;;;;;;;8.73;3.43;;;9.10;99.90;;;;;;2608966;54;20237;-77
2022/12/25 08:05:52;;;;;;;6.23;3.53;;;9.10;99.90;;;;;;2612033;54;20363;-75
2022/12/25 08:11:45;;;;;;;11.93;2.87;;;9.30;99.90;;;;;;2611477;39;20769;-76
2022/12/25 08:17:34;;;;;;;7.00;3.13;;;9.30;99.90;;;;;;2613273;54;20379;-77
2022/12/25 08:23:22;;;;;;;9.03;2.93;;;9.50;99.90;;;;;;2614086;54;20551;-77
2022/12/25 08:29:09;;;;;;;8.00;3.57;;;9.60;99.90;;;;;;2614284;54;20234;-76
2022/12/25 08:34:57;;;;;;;8.43;3.40;;;9.70;99.90;;;;;;2615099;39;20581;-77
2022/12/25 08:40:45;;;;;;;4.63;2.93;;;9.60;99.90;;;;;;2615551;54;20134;-78
2022/12/25 08:46:32;;;;;;;4.50;2.70;;;10.00;99.90;;;;;;2616181;39;20533;-77
2022/12/25 08:52:20;;;;;;;6.50;3.70;;;10.00;99.90;;;;;;2616315;54;20178;-79
2022/12/25 08:58:08;;;;;;;18.50;4.80;;;10.20;99.90;;;;;;2616227;54;20130;-77
2022/12/25 09:03:56;;;;;;;7.30;3.30;;;10.20;99.90;;;;;;2615577;54;20880;-77
2022/12/25 09:09:44;;;;;;;7.47;3.23;;;10.00;99.90;;;;;;2616009;54;20901;-75
2022/12/25 09:15:32;;;;;;;7.63;3.00;;;10.00;99.90;;;;;;2615608;54;20166;-77
2022/12/25 09:21:20;;;;;;;9.10;3.40;;;10.10;99.90;;;;;;2615800;54;20146;-77
2022/12/25 09:27:08;;;;;;;6.83;3.10;;;10.10;99.90;;;;;;2616346;54;20433;-77
2022/12/25 09:29:34;;;;;;;9.10;2.90;;;10.10;99.90;;;;;;2615202;47;20408;-78
2022/12/25 09:32:00;;;;;;;6.13;3.30;;;10.20;99.90;;;;;;2615563;54;20408;-78
2022/12/25 09:34:26;;;;;;;7.53;3.53;;;10.20;99.90;;;;;;2615352;54;20463;-78
2022/12/25 09:40:20;;;;;;;10.43;3.40;;;10.20;99.90;;;;;;2616420;54;20122;-77
2022/12/25 09:58:40;;;;;;;10.83;7.57;;;10.10;99.90;;;;;;2614319;54;20383;-80
2022/12/25 10:34:15;;;;;;;7.07;4.00;;;10.30;99.90;;;;;;2615482;54;20419;-77
2022/12/25 10:46:37;;;;;;;6.83;4.03;;;10.30;99.90;;;;;;2616285;54;20411;-79
2022/12/25 10:52:27;;;;;;;7.53;4.00;;;10.30;99.90;;;;;;2615156;54;20154;-79
2022/12/25 10:58:22;;;;;;;6.60;3.63;;;10.40;99.90;;;;;;2617743;46;20507;-81
2022/12/25 11:17:08;;;;;;;14.00;9.40;;;10.40;99.90;;;;;;2619497;54;20433;-81
2022/12/25 11:22:56;;;;;;;9.67;5.20;;;10.50;99.90;;;;;;2618677;54;20395;-79
2022/12/25 11:28:45;;;;;;;9.77;3.50;;;10.50;99.90;;;;;;2618193;54;20632;-81
2022/12/25 11:34:40;;;;;;;3.50;2.80;;;10.50;99.90;;;;;;2618936;54;20359;-81
2022/12/25 11:53:51;;;;;;;4.00;3.03;;;10.50;99.90;;;;;;2616126;54;21021;-81
2022/12/25 11:56:54;;;;;;;4.57;2.63;;;10.40;99.90;;;;;;2615932;54;20423;-79
2022/12/25 12:18:33;;;;;;;5.07;3.07;;;10.40;99.90;;;;;;2615305;54;20421;-80
2022/12/25 12:24:23;;;;;;;4.90;3.53;;;10.40;99.90;;;;;;2615349;54;21020;-79
2022/12/25 12:34:09;;;;;;;4.73;3.30;;;10.40;99.90;;;;;;2617373;54;20497;-80
2022/12/25 12:39:57;;;;;;;5.60;3.40;;;10.40;99.90;;;;;;2617078;54;20410;-80
2022/12/25 12:45:44;;;;;;;4.83;3.30;;;10.30;99.90;;;;;;2614917;54;20391;-80
2022/12/25 12:51:35;;;;;;;8.30;4.80;;;10.40;99.90;;;;;;2616494;54;20135;-81
2022/12/25 12:57:30;;;;;;;4.50;3.80;;;10.40;99.90;;;;;;2622441;54;20402;-82
2022/12/25 13:20:42;;;;;;;5.03;3.60;;;10.30;99.90;;;;;;2619150;54;20437;-81
2022/12/25 13:26:30;;;;;;;4.90;4.37;;;10.30;99.90;;;;;;2617196;54;20487;-82
2022/12/25 13:29:40;;;;;;;7.37;5.07;;;10.30;99.90;;;;;;2617816;46;20412;-82
2022/12/25 13:38:30;;;;;;;5.57;3.73;;;10.30;99.90;;;;;;2615325;54;20944;-81
2022/12/25 13:44:23;;;;;;;5.80;4.00;;;10.30;99.90;;;;;;2616151;54;20390;-81
2022/12/25 13:56:53;;;;;;;7.30;5.17;;;10.30;99.90;;;;;;2616398;54;20500;-81
2022/12/25 13:59:24;;;;;;;10.67;6.10;;;10.30;99.90;;;;;;2616116;39;20818;-80
2022/12/25 14:01:52;;;;;;;6.87;4.50;;;10.40;99.90;;;;;;2616147;54;20956;-81
2022/12/25 14:07:40;;;;;;;6.60;4.53;;;10.30;99.90;;;;;;2615063;54;20484;-80
2022/12/25 14:13:29;;;;;;;13.83;6.77;;;10.30;99.90;;;;;;2614928;54;20134;-81
2022/12/25 14:19:33;;;;;;;8.70;6.53;;;10.50;99.90;;;;;;2615693;54;20369;-81
2022/12/25 14:31:46;;;;;;;9.57;7.80;;;10.50;99.90;;;;;;2626158;54;20443;-84
2022/12/25 14:34:49;;;;;;;12.80;7.30;;;10.50;99.90;;;;;;2625040;54;20408;-84
2022/12/25 14:40:37;;;;;;;9.00;7.27;;;10.50;99.90;;;;;;2623971;54;20391;-84
2022/12/25 14:46:27;;;;;;;9.10;6.80;;;10.70;99.90;;;;;;2616589;39;20536;-81
2022/12/25 14:52:20;;;;;;;10.07;7.50;;;10.80;99.90;;;;;;2615826;54;20408;-79
2022/12/25 15:04:43;;;;;;;12.47;9.57;;;10.90;99.90;;;;;;2617187;39;20796;-81
2022/12/25 15:10:31;;;;;;;13.23;9.70;;;11.00;99.90;;;;;;2618310;39;20521;-80
2022/12/25 15:16:23;;;;;;;40.73;25.60;;;10.90;99.90;;;;;;2617096;54;20488;-80
2022/12/25 15:22:12;;;;;;;12.23;9.63;;;10.90;99.90;;;;;;2617821;54;20958;-78
2022/12/25 15:28:00;;;;;;;10.00;8.20;;;11.00;99.90;;;;;;2617600;54;20400;-78
2022/12/25 15:33:48;;;;;;;11.63;8.60;;;11.10;99.90;;;;;;2617873;54;20118;-80
2022/12/25 15:39:36;;;;;;;11.43;8.27;;;11.10;99.90;;;;;;2617695;54;20383;-81
2022/12/25 15:45:26;;;;;;;9.73;6.87;;;11.10;99.90;;;;;;2617697;54;20126;-78
2022/12/25 15:51:14;;;;;;;16.43;11.97;;;11.10;99.90;;;;;;2617233;54;20383;-80
2022/12/25 15:57:05;;;;;;;17.30;13.80;;;11.00;99.90;;;;;;2625023;54;20166;-81
2022/12/25 16:02:55;;;;;;;13.83;8.93;;;11.10;99.90;;;;;;2626314;54;20420;-83
2022/12/25 16:08:49;;;;;;;15.50;9.37;;;11.20;99.90;;;;;;2626724;46;20532;-83
2022/12/25 16:14:36;;;;;;;11.00;8.20;;;11.30;99.90;;;;;;2625361;54;20399;-81
2022/12/25 16:20:25;;;;;;;16.80;9.10;;;11.30;99.90;;;;;;2624937;54;20364;-82
2022/12/25 16:26:13;;;;;;;10.87;8.30;;;11.40;99.90;;;;;;2625499;54;20135;-82
2022/12/25 16:35:23;;;;;;;13.83;9.50;;;11.50;99.90;;;;;;2626460;47;20363;-80
2022/12/25 16:41:12;;;;;;;11.00;7.80;;;11.50;99.90;;;;;;2621236;54;20273;-82
2022/12/25 16:47:00;;;;;;;13.33;6.97;;;11.60;99.90;;;;;;2620206;54;20384;-82
2022/12/25 16:52:48;;;;;;;14.83;7.37;;;11.60;99.90;;;;;;2617485;54;20760;-78
2022/12/25 16:58:36;;;;;;;10.00;8.23;;;11.60;99.90;;;;;;2616768;54;20556;-78
2022/12/25 17:04:25;;;;;;;14.03;7.70;;;11.70;99.90;;;;;;2617089;54;20175;-78
2022/12/25 17:10:16;;;;;;;10.87;7.00;;;11.80;99.90;;;;;;2620094;54;20386;-83
2022/12/25 17:16:23;;;;;;;8.80;6.93;;;11.70;99.90;;;;;;2618294;54;20387;-79
2022/12/25 17:22:30;;;;;;;8.87;7.47;;;11.70;99.90;;;;;;2622227;54;20519;-81
2022/12/25 17:28:17;;;;;;;13.17;9.03;;;11.70;99.90;;;;;;2622102;39;20789;-80
2022/12/25 17:30:51;;;;;;;9.97;7.40;;;11.70;99.90;;;;;;2623053;54;20465;-81
2022/12/25 17:33:17;;;;;;;8.97;7.20;;;11.70;99.90;;;;;;2620755;54;20206;-80
2022/12/25 17:39:05;;;;;;;9.00;8.10;;;11.80;99.90;;;;;;2620495;54;20153;-80
2022/12/25 17:48:14;;;;;;;10.53;7.33;;;11.80;99.90;;;;;;2620569;54;20384;-81
2022/12/25 17:54:03;;;;;;;9.33;6.23;;;11.90;99.90;;;;;;2621559;54;20235;-80
2022/12/25 17:57:07;;;;;;;7.47;6.27;;;12.00;99.90;;;;;;2619914;47;20420;-81
2022/12/25 17:59:33;;;;;;;8.47;6.20;;;12.10;99.90;;;;;;2620674;54;20948;-80
2022/12/25 18:05:21;;;;;;;9.20;6.23;;;12.30;99.90;;;;;;2617209;54;20146;-80
2022/12/25 18:11:13;;;;;;;9.43;5.67;;;12.30;99.90;;;;;;2617262;54;20122;-79
2022/12/25 18:17:02;;;;;;;7.83;6.07;;;12.40;99.90;;;;;;2617440;54;20426;-80
2022/12/25 18:22:49;;;;;;;9.63;5.53;;;12.50;99.90;;;;;;2618352;46;20241;-79
2022/12/25 18:28:38;;;;;;;7.43;4.93;;;12.30;99.90;;;;;;2618760;39;20533;-80
2022/12/25 18:37:48;;;;;;;8.33;5.80;;;12.10;99.90;;;;;;2617945;54;20415;-84
2022/12/25 18:43:37;;;;;;;11.40;8.20;;;12.00;99.90;;;;;;2617356;46;20158;-82
2022/12/25 18:49:24;;;;;;;11.57;7.70;;;11.90;99.90;;;;;;2617576;54;20363;-81
2022/12/25 18:55:15;;;;;;;11.83;8.30;;;12.00;99.90;;;;;;2623799;54;20119;-83
2022/12/25 19:01:14;;;;;;;19.17;10.57;;;11.90;99.90;;;;;;2623548;46;20423;-82
2022/12/25 19:07:02;;;;;;;14.40;8.37;;;11.80;99.90;;;;;;2623239;54;20407;-83
2022/12/25 19:12:51;;;;;;;21.77;15.00;;;11.80;99.90;;;;;;2622819;54;20119;-84
2022/12/25 19:18:41;;;;;;;24.10;18.13;;;11.70;99.90;;;;;;2623898;54;20416;-84
2022/12/25 19:24:29;;;;;;;15.33;11.13;;;11.70;99.90;;;;;;2622846;54;20383;-84
2022/12/25 19:30:17;;;;;;;10.30;7.87;;;11.60;99.90;;;;;;2622237;54;20126;-84
2022/12/25 19:33:10;;;;;;;11.00;7.80;;;11.60;99.90;;;;;;2622878;39;20775;-84
2022/12/25 19:35:39;;;;;;;21.03;9.40;;;11.50;99.90;;;;;;2619607;47;20411;-84
2022/12/25 19:41:28;;;;;;;16.60;10.57;;;11.40;99.90;;;;;;2622165;54;20347;-80
2022/12/25 19:47:16;;;;;;;19.30;11.03;;;11.30;99.90;;;;;;2617932;54;21002;-80
2022/12/25 19:53:04;;;;;;;15.10;9.80;;;11.20;99.90;;;;;;2618139;54;20208;-80
2022/12/25 19:58:52;;;;;;;13.53;9.60;;;11.10;99.90;;;;;;2618111;54;20114;-80
2022/12/25 20:04:40;;;;;;;15.27;10.00;;;11.10;99.90;;;;;;2616973;54;20418;-85
2022/12/25 20:10:27;;;;;;;11.83;8.97;;;11.10;99.90;;;;;;2618227;54;20114;-80
2022/12/25 20:16:16;;;;;;;12.97;8.37;;;11.10;99.90;;;;;;2618756;39;20481;-79
2022/12/25 20:22:04;;;;;;;12.33;9.00;;;11.10;99.90;;;;;;2618448;39;20810;-79
2022/12/25 20:27:52;;;;;;;11.97;9.77;;;11.00;99.90;;;;;;2617938;54;20235;-81
2022/12/25 20:37:45;;;;;;;15.23;10.93;;;11.10;99.90;;;;;;2617761;54;20410;-81
2022/12/25 20:43:33;;;;;;;13.60;7.43;;;11.30;99.90;;;;;;2618000;54;20418;-80
2022/12/25 20:49:20;;;;;;;12.47;8.90;;;11.50;99.90;;;;;;2618621;54;20423;-80
2022/12/25 20:55:08;;;;;;;12.90;8.40;;;11.50;99.90;;;;;;2618642;54;20173;-80
2022/12/25 21:00:57;;;;;;;11.20;8.63;;;11.60;99.90;;;;;;2618147;54;20427;-82
2022/12/25 21:06:44;;;;;;;13.33;8.07;;;11.50;99.90;;;;;;2618827;39;20750;-81
2022/12/25 21:12:32;;;;;;;14.17;9.50;;;11.50;99.90;;;;;;2618906;54;20139;-81
2022/12/25 21:18:22;;;;;;;15.17;9.83;;;11.50;99.90;;;;;;2618791;54;20668;-80
2022/12/25 21:24:10;;;;;;;10.40;8.07;;;11.50;99.90;;;;;;2618956;54;20419;-80
2022/12/25 21:29:57;;;;;;;12.10;8.00;;;11.50;99.90;;;;;;2618742;54;20403;-81
2022/12/25 21:35:46;;;;;;;14.23;8.57;;;11.50;99.90;;;;;;2621987;54;20138;-85
2022/12/25 21:41:35;;;;;;;11.73;9.00;;;11.50;99.90;;;;;;2617708;54;20371;-79
2022/12/25 21:47:23;;;;;;;11.67;8.20;;;11.50;99.90;;;;;;2617937;54;20459;-81
2022/12/25 21:53:19;;;;;;;15.73;9.33;;;11.50;99.90;;;;;;2619554;54;20146;-81
2022/12/25 21:59:08;;;;;;;15.73;9.87;;;11.50;99.90;;;;;;2619331;54;20371;-80
2022/12/25 22:04:56;;;;;;;13.63;9.90;;;11.40;99.90;;;;;;2619091;54;20919;-78
2022/12/25 22:10:44;;;;;;;14.43;10.60;;;11.40;99.90;;;;;;2619077;39;20504;-79
2022/12/25 22:22:40;;;;;;;15.73;8.93;;;11.30;99.90;;;;;;2617748;54;20414;-83
2022/12/25 22:28:28;;;;;;;14.43;9.23;;;11.30;99.90;;;;;;2618734;54;20456;-84
2022/12/25 22:37:52;;;;;;;11.50;7.97;;;11.30;99.90;;;;;;2618517;54;20395;-84
2022/12/25 22:43:41;;;;;;;11.87;9.03;;;11.40;99.90;;;;;;2618560;54;20412;-84
2022/12/25 22:49:28;;;;;;;13.13;8.63;;;11.40;99.90;;;;;;2618256;54;20511;-78
2022/12/25 22:55:17;;;;;;;7.73;6.90;;;11.40;99.90;;;;;;2618127;54;20118;-80
2022/12/25 23:01:09;;;;;;;11.73;8.00;;;11.30;99.90;;;;;;2618062;54;20418;-80
2022/12/25 23:06:57;;;;;;;9.53;6.77;;;11.30;99.90;;;;;;2617697;54;20391;-79
2022/12/25 23:31:05;;;;;;;7.20;4.83;;;11.30;99.90;;;;;;2616753;54;20470;-79
2022/12/25 23:36:52;;;;;;;4.20;3.30;;;11.20;99.90;;;;;;2617614;54;20624;-79
2022/12/25 23:42:40;;;;;;;5.10;3.87;;;11.20;99.90;;;;;;2617063;54;20119;-81
2022/12/25 23:48:28;;;;;;;8.60;4.90;;;11.20;99.90;;;;;;2618035;54;20122;-78
2022/12/25 23:54:19;;;;;;;9.60;6.20;;;11.10;99.90;;;;;;2618452;39;20503;-78
